Time;durP1;ratioP1;P1;durP2;ratioP2;P2;SDS_P1;SDS_P2;PMS_P1;PMS_P2;Temp;Humidity;BMP_temperature;BMP_pressure;BME280_temperature;BME280_humidity;BME280_pressure;Samples;Min_cycle;Max_cycle;Signal;HPM_P1;HPM_P2
2022/09/21 00:00:44;;;;;;;0.25;0.25;;;;;;;;;;1865282;77;26363;-61
2022/09/21 00:03:11;;;;;;;0.40;0.40;;;;;;;;;;1841857;77;26288;-63
2022/09/21 00:05:39;;;;;;;0.50;0.50;;;;;;;;;;1865317;77;26758;-61
2022/09/21 00:08:07;;;;;;;0.40;0.40;;;;;;;;;;1854986;77;27309;-61
2022/09/21 00:10:34;;;;;;;2.30;0.30;;;;;;;;;;1865313;77;26396;-61
2022/09/21 00:13:02;;;;;;;0.75;0.30;;;;;;;;;;1853867;77;26734;-60
2022/09/21 00:15:30;;;;;;;0.20;0.20;;;;;;;;;;1843774;77;26207;-59
2022/09/21 00:17:58;;;;;;;0.30;0.30;;;;;;;;;;1865133;77;27317;-61
2022/09/21 00:20:27;;;;;;;0.35;0.30;;;;;;;;;;1848243;77;26211;-60
2022/09/21 00:22:54;;;;;;;0.45;0.40;;;;;;;;;;1865229;77;26306;-62
2022/09/21 00:25:21;;;;;;;0.40;0.40;;;;;;;;;;1830137;77;26292;-63
2022/09/21 00:27:50;;;;;;;1.15;0.40;;;;;;;;;;1835831;77;26254;-61
2022/09/21 00:30:17;;;;;;;0.30;0.30;;;;;;;;;;1852013;77;26339;-64
2022/09/21 00:32:45;;;;;;;0.50;0.35;;;;;;;;;;1861006;77;26239;-60
2022/09/21 00:35:12;;;;;;;0.30;0.30;;;;;;;;;;1865060;77;26266;-64
2022/09/21 00:37:39;;;;;;;0.30;0.30;;;;;;;;;;1862525;77;26259;-62
2022/09/21 00:40:07;;;;;;;0.20;0.20;;;;;;;;;;1859841;77;26253;-60
2022/09/21 00:42:34;;;;;;;0.33;0.33;;;;;;;;;;1859154;77;26210;-61
2022/09/21 00:45:02;;;;;;;0.20;0.20;;;;;;;;;;1865089;77;26211;-59
2022/09/21 00:47:42;;;;;;;0.30;0.30;;;;;;;;;;1851099;77;26301;-62
2022/09/21 00:50:12;;;;;;;0.20;0.20;;;;;;;;;;1848893;77;26309;-59
2022/09/21 00:52:41;;;;;;;1.30;0.40;;;;;;;;;;1860008;77;26724;-60
2022/09/21 00:55:10;;;;;;;0.20;0.20;;;;;;;;;;1818764;77;26725;-59
2022/09/21 00:57:38;;;;;;;0.30;0.30;;;;;;;;;;1812506;77;26247;-60
2022/09/21 01:00:11;;;;;;;0.23;0.23;;;;;;;;;;1822468;77;27405;-59
2022/09/21 01:02:36;;;;;;;1.55;0.30;;;;;;;;;;1837912;77;26792;-60
2022/09/21 01:05:05;;;;;;;0.57;0.25;;;;;;;;;;1824975;78;26368;-60
2022/09/21 01:07:34;;;;;;;0.25;0.25;;;;;;;;;;1848092;77;26776;-62
2022/09/21 01:10:03;;;;;;;0.42;0.30;;;;;;;;;;1857408;77;26255;-59
2022/09/21 01:12:32;;;;;;;0.20;0.20;;;;;;;;;;1826708;77;26337;-59
2022/09/21 01:15:01;;;;;;;0.30;0.30;;;;;;;;;;1834459;77;26768;-61
2022/09/21 01:17:30;;;;;;;0.33;0.33;;;;;;;;;;1858619;77;26787;-61
2022/09/21 01:20:16;;;;;;;0.30;0.30;;;;;;;;;;1855095;77;26231;-59
2022/09/21 01:22:48;;;;;;;0.20;0.20;;;;;;;;;;1860214;77;26858;-60
2022/09/21 01:25:17;;;;;;;0.20;0.20;;;;;;;;;;1864651;76;26282;-62
2022/09/21 01:27:48;;;;;;;0.20;0.20;;;;;;;;;;1815572;77;26329;-61
2022/09/21 01:30:17;;;;;;;0.30;0.30;;;;;;;;;;1814610;77;26266;-64
2022/09/21 01:32:49;;;;;;;0.20;0.20;;;;;;;;;;1856835;77;26246;-61
2022/09/21 01:35:30;;;;;;;0.20;0.20;;;;;;;;;;1862702;77;26251;-59
2022/09/21 01:37:58;;;;;;;0.20;0.20;;;;;;;;;;1855773;77;26829;-62
2022/09/21 01:40:31;;;;;;;0.10;0.10;;;;;;;;;;1854120;77;26565;-62
2022/09/21 01:43:00;;;;;;;0.30;0.30;;;;;;;;;;1850203;77;26340;-60
2022/09/21 01:45:29;;;;;;;0.20;0.20;;;;;;;;;;1862471;77;26274;-58
2022/09/21 01:47:57;;;;;;;0.20;0.20;;;;;;;;;;1860760;77;26287;-64
2022/09/21 01:50:26;;;;;;;0.20;0.20;;;;;;;;;;1863987;77;26243;-59
2022/09/21 01:52:55;;;;;;;0.30;0.30;;;;;;;;;;1864167;77;26865;-59
2022/09/21 01:55:27;;;;;;;0.17;0.17;;;;;;;;;;1856977;77;26672;-65
2022/09/21 01:57:57;;;;;;;0.20;0.20;;;;;;;;;;1863902;76;26335;-63
2022/09/21 02:00:25;;;;;;;0.13;0.13;;;;;;;;;;1863945;76;26707;-64
2022/09/21 02:02:54;;;;;;;1.00;0.30;;;;;;;;;;1833693;77;26330;-59
2022/09/21 02:05:23;;;;;;;0.20;0.20;;;;;;;;;;1824814;77;26253;-61
2022/09/21 02:07:52;;;;;;;0.20;0.20;;;;;;;;;;1845358;77;26325;-61
2022/09/21 02:10:21;;;;;;;0.30;0.30;;;;;;;;;;1863985;77;26281;-61
2022/09/21 02:12:50;;;;;;;0.30;0.30;;;;;;;;;;1851096;77;26250;-61
2022/09/21 02:15:20;;;;;;;0.40;0.20;;;;;;;;;;1839001;77;26279;-64
2022/09/21 02:17:49;;;;;;;0.15;0.15;;;;;;;;;;1863575;77;26238;-61
2022/09/21 02:20:20;;;;;;;0.10;0.10;;;;;;;;;;1841165;77;26567;-61
2022/09/21 02:22:58;;;;;;;0.20;0.20;;;;;;;;;;1842095;77;26224;-59
2022/09/21 02:25:39;;;;;;;0.20;0.20;;;;;;;;;;1865477;76;26734;-60
2022/09/21 02:28:08;;;;;;;0.13;0.13;;;;;;;;;;1846685;77;26333;-59
2022/09/21 02:30:36;;;;;;;0.15;0.15;;;;;;;;;;1858385;77;26239;-60
2022/09/21 02:33:14;;;;;;;0.20;0.20;;;;;;;;;;1861485;77;26309;-63
2022/09/21 02:35:43;;;;;;;0.20;0.20;;;;;;;;;;1866722;77;26274;-64
2022/09/21 02:38:17;;;;;;;0.20;0.20;;;;;;;;;;1845833;77;26710;-60
2022/09/21 02:41:02;;;;;;;0.10;0.10;;;;;;;;;;1862060;77;26235;-67
2022/09/21 02:43:34;;;;;;;0.20;0.20;;;;;;;;;;1853575;77;26696;-62
2022/09/21 02:46:04;;;;;;;0.10;0.10;;;;;;;;;;1859080;77;26710;-61
2022/09/21 02:48:33;;;;;;;0.30;0.30;;;;;;;;;;1858443;77;26730;-60
2022/09/21 02:51:01;;;;;;;0.10;0.10;;;;;;;;;;1867109;77;26722;-62
2022/09/21 02:53:30;;;;;;;0.30;0.30;;;;;;;;;;1866667;77;26617;-60
2022/09/21 02:56:02;;;;;;;0.20;0.20;;;;;;;;;;1867420;77;26679;-59
2022/09/21 02:58:28;;;;;;;0.20;0.20;;;;;;;;;;1866558;77;26352;-58
2022/09/21 03:00:56;;;;;;;0.13;0.13;;;;;;;;;;1867227;77;26972;-59
2022/09/21 03:03:23;;;;;;;0.15;0.15;;;;;;;;;;1838124;77;26517;-60
2022/09/21 03:05:52;;;;;;;0.20;0.20;;;;;;;;;;1828328;77;26239;-63
2022/09/21 03:08:20;;;;;;;0.10;0.10;;;;;;;;;;1856254;77;26384;-60
2022/09/21 03:10:48;;;;;;;0.10;0.10;;;;;;;;;;1867556;77;26789;-61
2022/09/21 03:13:16;;;;;;;0.23;0.23;;;;;;;;;;1846039;77;26285;-64
2022/09/21 03:15:44;;;;;;;0.15;0.15;;;;;;;;;;1858543;77;26306;-59
2022/09/21 03:18:12;;;;;;;0.10;0.10;;;;;;;;;;1835294;77;26252;-58
2022/09/21 03:20:40;;;;;;;0.20;0.20;;;;;;;;;;1838290;77;26246;-61
2022/09/21 03:23:07;;;;;;;0.10;0.10;;;;;;;;;;1841255;77;26256;-62
2022/09/21 03:25:35;;;;;;;0.10;0.10;;;;;;;;;;1853091;76;26282;-60
2022/09/21 03:28:02;;;;;;;0.10;0.10;;;;;;;;;;1863354;77;26321;-61
2022/09/21 03:30:30;;;;;;;0.10;0.10;;;;;;;;;;1862525;77;26929;-59
2022/09/21 03:32:58;;;;;;;0.25;0.25;;;;;;;;;;1863203;77;27386;-59
2022/09/21 03:35:28;;;;;;;0.20;0.20;;;;;;;;;;1863377;77;26287;-59
2022/09/21 03:37:56;;;;;;;0.20;0.20;;;;;;;;;;1840941;77;27527;-63
2022/09/21 03:40:25;;;;;;;0.20;0.20;;;;;;;;;;1856744;77;26363;-59
2022/09/21 03:42:53;;;;;;;0.20;0.20;;;;;;;;;;1861912;77;26254;-61
2022/09/21 03:45:21;;;;;;;0.62;0.13;;;;;;;;;;1863343;77;26779;-63
2022/09/21 03:47:48;;;;;;;0.13;0.13;;;;;;;;;;1863096;77;26235;-59
2022/09/21 03:50:16;;;;;;;0.10;0.10;;;;;;;;;;1863086;77;26707;-61
2022/09/21 03:52:44;;;;;;;0.20;0.20;;;;;;;;;;1863310;77;26270;-62
2022/09/21 03:55:11;;;;;;;0.20;0.20;;;;;;;;;;1849226;77;26588;-62
2022/09/21 03:57:39;;;;;;;0.20;0.20;;;;;;;;;;1863009;77;26541;-63
2022/09/21 04:00:08;;;;;;;0.20;0.20;;;;;;;;;;1862888;77;26873;-60
2022/09/21 04:02:36;;;;;;;0.15;0.15;;;;;;;;;;1840879;77;26252;-62
2022/09/21 04:05:03;;;;;;;0.20;0.20;;;;;;;;;;1821004;77;26286;-61
2022/09/21 04:07:34;;;;;;;0.33;0.20;;;;;;;;;;1842742;77;26328;-63
2022/09/21 04:10:04;;;;;;;0.10;0.10;;;;;;;;;;1855469;77;26478;-61
2022/09/21 04:12:33;;;;;;;0.17;0.17;;;;;;;;;;1829795;77;26354;-59
2022/09/21 04:15:00;;;;;;;0.20;0.20;;;;;;;;;;1843334;77;26340;-59
2022/09/21 04:17:28;;;;;;;0.20;0.20;;;;;;;;;;1846005;77;26332;-64
2022/09/21 04:19:55;;;;;;;0.20;0.20;;;;;;;;;;1848365;77;26328;-59
2022/09/21 04:22:23;;;;;;;0.17;0.17;;;;;;;;;;1857618;77;26350;-60
2022/09/21 04:24:51;;;;;;;0.62;0.25;;;;;;;;;;1862530;77;26593;-63
2022/09/21 04:27:18;;;;;;;0.20;0.20;;;;;;;;;;1863347;76;26271;-62
2022/09/21 04:29:46;;;;;;;0.10;0.10;;;;;;;;;;1852651;77;26727;-65
2022/09/21 04:32:13;;;;;;;0.23;0.23;;;;;;;;;;1859571;77;26279;-61
2022/09/21 04:34:40;;;;;;;0.17;0.15;;;;;;;;;;1863164;77;26252;-62
2022/09/21 04:37:10;;;;;;;0.17;0.17;;;;;;;;;;1840748;77;26247;-66
2022/09/21 04:39:37;;;;;;;0.20;0.20;;;;;;;;;;1861484;77;26834;-63
2022/09/21 04:42:05;;;;;;;0.20;0.20;;;;;;;;;;1856396;77;27304;-61
2022/09/21 04:44:33;;;;;;;0.10;0.10;;;;;;;;;;1856010;77;26287;-60
2022/09/21 04:47:00;;;;;;;0.17;0.17;;;;;;;;;;1858033;77;26332;-60
2022/09/21 04:49:27;;;;;;;0.20;0.20;;;;;;;;;;1858975;77;26675;-64
2022/09/21 04:51:55;;;;;;;0.10;0.10;;;;;;;;;;1859649;77;26785;-61
2022/09/21 04:54:22;;;;;;;0.20;0.20;;;;;;;;;;1856671;77;26735;-65
2022/09/21 04:56:50;;;;;;;0.30;0.30;;;;;;;;;;1861548;77;26266;-63
2022/09/21 04:59:17;;;;;;;0.20;0.20;;;;;;;;;;1858412;77;27534;-62
2022/09/21 05:01:44;;;;;;;0.25;0.25;;;;;;;;;;1855807;77;27446;-63
2022/09/21 05:04:12;;;;;;;0.10;0.10;;;;;;;;;;1857754;77;26243;-63
2022/09/21 05:06:39;;;;;;;0.20;0.20;;;;;;;;;;1860319;77;26239;-67
2022/09/21 05:11:52;;;;;;;1.17;0.28;;;;;;;;;;1857847;77;26256;-63
2022/09/21 05:14:19;;;;;;;0.20;0.20;;;;;;;;;;1862253;77;26400;-64
2022/09/21 05:16:48;;;;;;;0.30;0.20;;;;;;;;;;1855692;77;26250;-64
2022/09/21 05:19:16;;;;;;;0.23;0.23;;;;;;;;;;1851384;77;26265;-61
2022/09/21 05:21:43;;;;;;;0.20;0.20;;;;;;;;;;1863167;77;27366;-61
2022/09/21 05:24:11;;;;;;;5.95;0.33;;;;;;;;;;1857643;77;26348;-60
2022/09/21 05:26:38;;;;;;;0.20;0.20;;;;;;;;;;1863834;76;26353;-63
2022/09/21 05:29:05;;;;;;;0.60;0.30;;;;;;;;;;1855686;77;26251;-60
2022/09/21 05:31:40;;;;;;;0.20;0.20;;;;;;;;;;1863753;77;26271;-63
2022/09/21 05:34:15;;;;;;;0.35;0.35;;;;;;;;;;1856428;77;26278;-61
2022/09/21 05:36:50;;;;;;;3.10;0.42;;;;;;;;;;1855052;77;26255;-65
2022/09/21 05:39:17;;;;;;;0.20;0.20;;;;;;;;;;1863587;77;26255;-61
2022/09/21 05:41:45;;;;;;;0.42;0.30;;;;;;;;;;1847849;77;26195;-60
2022/09/21 05:44:16;;;;;;;0.30;0.28;;;;;;;;;;1863509;77;26251;-64
2022/09/21 05:46:53;;;;;;;0.28;0.28;;;;;;;;;;1862813;77;26263;-60
2022/09/21 05:49:40;;;;;;;1.10;0.40;;;;;;;;;;1847210;77;26271;-63
2022/09/21 05:52:09;;;;;;;0.23;0.20;;;;;;;;;;1826318;77;26773;-59
2022/09/21 05:54:50;;;;;;;0.57;0.40;;;;;;;;;;1790921;77;26855;-61
2022/09/21 05:57:25;;;;;;;1.02;0.20;;;;;;;;;;1811539;79;26277;-61
2022/09/21 05:59:56;;;;;;;0.10;0.10;;;;;;;;;;1810603;79;26290;-57
2022/09/21 06:02:25;;;;;;;0.85;0.23;;;;;;;;;;1801174;79;26325;-56
2022/09/21 06:04:54;;;;;;;0.93;0.20;;;;;;;;;;1820903;77;26294;-57
2022/09/21 06:07:22;;;;;;;0.75;0.20;;;;;;;;;;1819685;78;26267;-53
2022/09/21 06:09:49;;;;;;;2.12;0.55;;;;;;;;;;1816541;79;26256;-58
2022/09/21 06:12:16;;;;;;;0.70;0.65;;;;;;;;;;1816452;79;26258;-65
2022/09/21 06:14:43;;;;;;;1.30;0.20;;;;;;;;;;1816439;79;26274;-55
2022/09/21 06:17:11;;;;;;;0.23;0.23;;;;;;;;;;1814933;79;26811;-56
2022/09/21 06:19:39;;;;;;;0.93;0.40;;;;;;;;;;1808582;77;26377;-62
2022/09/21 06:22:06;;;;;;;0.30;0.30;;;;;;;;;;1813527;79;26949;-57
2022/09/21 06:24:33;;;;;;;0.65;0.28;;;;;;;;;;1815072;79;26793;-55
2022/09/21 06:27:00;;;;;;;0.15;0.15;;;;;;;;;;1813527;79;26749;-55
2022/09/21 06:29:28;;;;;;;0.65;0.30;;;;;;;;;;1815061;79;26941;-59
2022/09/21 06:31:55;;;;;;;0.80;0.30;;;;;;;;;;1814323;79;26306;-54
2022/09/21 06:34:22;;;;;;;1.90;0.30;;;;;;;;;;1814088;79;26271;-61
2022/09/21 06:36:50;;;;;;;0.47;0.47;;;;;;;;;;1814187;78;26246;-54
2022/09/21 06:39:17;;;;;;;0.17;0.17;;;;;;;;;;1815089;79;26706;-58
2022/09/21 06:41:44;;;;;;;0.55;0.30;;;;;;;;;;1814647;78;26275;-59
2022/09/21 06:44:11;;;;;;;0.25;0.10;;;;;;;;;;1812867;77;26359;-56
2022/09/21 06:46:39;;;;;;;1.25;0.50;;;;;;;;;;1813514;79;26911;-62
2022/09/21 06:49:06;;;;;;;27.85;1.75;;;;;;;;;;1815955;79;26262;-62
2022/09/21 06:51:35;;;;;;;10.50;0.95;;;;;;;;;;1813930;77;26397;-63
2022/09/21 06:54:02;;;;;;;12.50;1.17;;;;;;;;;;1810565;78;26270;-62
2022/09/21 06:56:29;;;;;;;17.98;1.02;;;;;;;;;;1806983;79;26829;-63
2022/09/21 06:58:57;;;;;;;10.98;1.07;;;;;;;;;;1781920;79;28393;-59
2022/09/21 07:01:24;;;;;;;3.90;0.93;;;;;;;;;;1806474;79;26287;-59
2022/09/21 07:03:52;;;;;;;6.87;0.93;;;;;;;;;;1808253;79;27364;-59
2022/09/21 07:08:52;;;;;;;6.08;0.68;;;;;;;;;;1819001;77;26946;-62
2022/09/21 07:11:20;;;;;;;4.78;0.60;;;;;;;;;;1816969;78;26382;-61
2022/09/21 07:13:49;;;;;;;4.55;0.60;;;;;;;;;;1820181;77;26827;-60
2022/09/21 07:16:18;;;;;;;5.62;0.50;;;;;;;;;;1828682;77;26361;-59
2022/09/21 07:18:45;;;;;;;2.77;0.60;;;;;;;;;;1827515;77;26283;-59
2022/09/21 07:21:13;;;;;;;3.30;0.70;;;;;;;;;;1828897;77;26337;-60
2022/09/21 07:23:41;;;;;;;3.30;0.78;;;;;;;;;;1830359;77;26853;-62
2022/09/21 07:26:09;;;;;;;2.90;0.70;;;;;;;;;;1823798;77;26335;-59
2022/09/21 07:28:37;;;;;;;5.40;0.50;;;;;;;;;;1820588;77;26845;-59
2022/09/21 07:31:08;;;;;;;7.33;0.65;;;;;;;;;;1834848;77;26345;-61
2022/09/21 07:33:36;;;;;;;1.85;0.65;;;;;;;;;;1857189;76;26272;-65
2022/09/21 07:36:11;;;;;;;0.88;0.50;;;;;;;;;;1861360;76;26330;-61
2022/09/21 07:38:43;;;;;;;4.67;0.68;;;;;;;;;;1864604;76;26765;-64
2022/09/21 07:41:11;;;;;;;4.30;0.50;;;;;;;;;;1864450;76;26292;-63
2022/09/21 07:43:39;;;;;;;4.35;0.60;;;;;;;;;;1854838;76;26350;-62
2022/09/21 07:46:11;;;;;;;5.90;0.37;;;;;;;;;;1856766;77;26708;-61
2022/09/21 07:48:38;;;;;;;3.40;0.57;;;;;;;;;;1859517;76;26265;-62
2022/09/21 07:51:07;;;;;;;3.80;0.50;;;;;;;;;;1865424;76;26237;-60
2022/09/21 07:53:35;;;;;;;2.65;0.60;;;;;;;;;;1866635;76;26678;-62
2022/09/21 07:56:04;;;;;;;4.08;0.68;;;;;;;;;;1877050;76;26311;-59
2022/09/21 08:01:17;;;;;;;2.52;0.50;;;;;;;;;;1879760;76;26369;-60
2022/09/21 08:03:44;;;;;;;2.75;0.37;;;;;;;;;;1872714;76;26616;-57
2022/09/21 08:06:11;;;;;;;2.15;0.50;;;;;;;;;;1864374;76;26311;-59
2022/09/21 08:08:40;;;;;;;2.33;0.30;;;;;;;;;;1882554;75;26324;-61
2022/09/21 08:11:08;;;;;;;6.22;0.40;;;;;;;;;;1859360;76;27339;-59
2022/09/21 08:13:35;;;;;;;4.35;0.60;;;;;;;;;;1877676;76;26233;-63
2022/09/21 08:16:03;;;;;;;5.15;0.40;;;;;;;;;;1859034;76;26250;-59
2022/09/21 08:18:30;;;;;;;1.25;0.35;;;;;;;;;;1851469;76;26699;-59
2022/09/21 08:20:59;;;;;;;2.15;0.40;;;;;;;;;;1864615;76;26261;-60
2022/09/21 08:23:28;;;;;;;1.70;0.50;;;;;;;;;;1869257;76;26322;-64
2022/09/21 08:25:59;;;;;;;2.98;0.28;;;;;;;;;;1858428;76;26741;-62
2022/09/21 08:28:27;;;;;;;3.87;0.40;;;;;;;;;;1861443;76;26756;-61
2022/09/21 08:30:56;;;;;;;0.50;0.42;;;;;;;;;;1886281;76;26227;-60
2022/09/21 08:33:23;;;;;;;0.33;0.33;;;;;;;;;;1850752;75;26230;-59
2022/09/21 08:35:54;;;;;;;1.80;0.40;;;;;;;;;;1848406;76;26258;-61
2022/09/21 08:38:22;;;;;;;5.67;0.40;;;;;;;;;;1852170;76;26191;-61
2022/09/21 08:40:49;;;;;;;0.33;0.33;;;;;;;;;;1854846;76;26254;-61
2022/09/21 08:43:36;;;;;;;3.80;0.40;;;;;;;;;;1850717;76;26262;-60
2022/09/21 08:46:05;;;;;;;0.68;0.40;;;;;;;;;;1849543;76;26241;-59
2022/09/21 08:48:36;;;;;;;2.90;0.35;;;;;;;;;;1873702;76;26249;-60
2022/09/21 08:51:05;;;;;;;0.30;0.30;;;;;;;;;;1887257;76;26710;-60
2022/09/21 08:53:40;;;;;;;0.50;0.50;;;;;;;;;;1887415;76;26289;-56
2022/09/21 08:56:11;;;;;;;2.08;0.90;;;;;;;;;;1887334;75;26344;-56
2022/09/21 08:58:42;;;;;;;0.30;0.30;;;;;;;;;;1887413;76;26230;-58
2022/09/21 09:01:23;;;;;;;1.27;0.33;;;;;;;;;;1869013;76;26191;-61
2022/09/21 09:04:10;;;;;;;0.45;0.20;;;;;;;;;;1886528;76;26247;-59
2022/09/21 09:06:54;;;;;;;0.47;0.40;;;;;;;;;;1871859;76;26811;-61
2022/09/21 09:09:23;;;;;;;0.88;0.50;;;;;;;;;;1875801;75;26305;-62
2022/09/21 09:12:08;;;;;;;0.30;0.30;;;;;;;;;;1893341;75;26233;-62
2022/09/21 09:14:49;;;;;;;0.30;0.30;;;;;;;;;;1874998;75;26222;-53
2022/09/21 09:17:24;;;;;;;1.02;0.40;;;;;;;;;;1866083;75;26681;-60
2022/09/21 09:19:59;;;;;;;3.02;0.50;;;;;;;;;;1864650;75;26241;-61
2022/09/21 09:22:31;;;;;;;0.20;0.20;;;;;;;;;;1862950;75;26246;-59
2022/09/21 09:25:00;;;;;;;0.70;0.30;;;;;;;;;;1885527;75;26253;-60
2022/09/21 09:27:29;;;;;;;1.20;0.30;;;;;;;;;;1881904;75;26276;-61
2022/09/21 09:30:04;;;;;;;2.92;0.40;;;;;;;;;;1881000;75;26318;-57
2022/09/21 09:32:33;;;;;;;2.12;0.50;;;;;;;;;;1890634;75;26702;-58
2022/09/21 09:35:18;;;;;;;0.30;0.30;;;;;;;;;;1882502;75;26820;-57
2022/09/21 09:37:46;;;;;;;0.30;0.30;;;;;;;;;;1869845;75;26253;-60
2022/09/21 09:40:14;;;;;;;0.50;0.50;;;;;;;;;;1858464;75;27413;-62
2022/09/21 09:42:43;;;;;;;1.25;0.60;;;;;;;;;;1859940;75;26230;-58
2022/09/21 09:45:19;;;;;;;0.75;0.30;;;;;;;;;;1861643;75;26237;-60
2022/09/21 09:48:01;;;;;;;0.20;0.20;;;;;;;;;;1885310;75;26281;-59
2022/09/21 09:50:29;;;;;;;0.53;0.25;;;;;;;;;;1871412;75;26502;-61
2022/09/21 09:52:58;;;;;;;1.50;0.25;;;;;;;;;;1885579;75;26219;-60
2022/09/21 09:55:30;;;;;;;0.42;0.20;;;;;;;;;;1866780;75;26724;-58
2022/09/21 09:57:58;;;;;;;1.10;0.40;;;;;;;;;;1877334;75;26540;-58
2022/09/21 10:00:25;;;;;;;0.35;0.33;;;;;;;;;;1869848;75;26245;-58
2022/09/21 10:03:01;;;;;;;0.20;0.20;;;;;;;;;;1867821;75;26260;-64
2022/09/21 10:05:30;;;;;;;0.30;0.30;;;;;;;;;;1866317;75;26744;-59
2022/09/21 10:07:57;;;;;;;0.50;0.20;;;;;;;;;;1869554;75;26687;-63
2022/09/21 10:10:35;;;;;;;0.35;0.30;;;;;;;;;;1859046;76;26291;-64
2022/09/21 10:13:12;;;;;;;1.35;0.15;;;;;;;;;;1858584;76;26307;-54
2022/09/21 10:15:44;;;;;;;0.57;0.30;;;;;;;;;;1856126;77;27454;-61
2022/09/21 10:18:22;;;;;;;0.30;0.30;;;;;;;;;;1829142;76;27030;-61
2022/09/21 10:20:50;;;;;;;0.10;0.10;;;;;;;;;;1822196;77;26357;-62
2022/09/21 10:23:18;;;;;;;0.20;0.20;;;;;;;;;;1848589;76;26364;-58
2022/09/21 10:25:47;;;;;;;0.20;0.20;;;;;;;;;;1848793;76;27161;-62
2022/09/21 10:28:14;;;;;;;1.65;0.30;;;;;;;;;;1848710;76;26654;-64
2022/09/21 10:30:41;;;;;;;0.20;0.20;;;;;;;;;;1847577;76;26255;-61
2022/09/21 10:33:10;;;;;;;4.03;0.35;;;;;;;;;;1847433;76;27334;-60
2022/09/21 10:35:39;;;;;;;0.30;0.30;;;;;;;;;;1847213;76;26877;-62
2022/09/21 10:38:10;;;;;;;0.10;0.10;;;;;;;;;;1848222;76;26729;-60
2022/09/21 10:40:38;;;;;;;0.20;0.20;;;;;;;;;;1860451;76;26305;-50
2022/09/21 10:43:07;;;;;;;0.55;0.33;;;;;;;;;;1852855;76;27197;-61
2022/09/21 10:45:38;;;;;;;0.37;0.30;;;;;;;;;;1857138;76;26305;-57
2022/09/21 10:48:07;;;;;;;0.25;0.15;;;;;;;;;;1851676;76;26256;-59
2022/09/21 10:50:38;;;;;;;0.25;0.20;;;;;;;;;;1854231;76;26308;-58
2022/09/21 10:53:10;;;;;;;0.33;0.30;;;;;;;;;;1853898;76;26248;-57
2022/09/21 10:55:42;;;;;;;0.20;0.20;;;;;;;;;;1854729;76;26850;-56
2022/09/21 10:58:10;;;;;;;0.17;0.17;;;;;;;;;;1845949;76;26284;-58
2022/09/21 11:00:42;;;;;;;0.20;0.20;;;;;;;;;;1848381;76;26698;-58
2022/09/21 11:03:11;;;;;;;0.42;0.10;;;;;;;;;;1847768;76;26428;-61
2022/09/21 11:05:39;;;;;;;0.30;0.25;;;;;;;;;;1839302;76;26262;-59
2022/09/21 11:08:20;;;;;;;0.10;0.10;;;;;;;;;;1846578;76;26310;-61
2022/09/21 11:10:49;;;;;;;1.32;0.20;;;;;;;;;;1797161;76;26233;-62
2022/09/21 11:13:30;;;;;;;0.65;0.30;;;;;;;;;;1840466;77;26242;-63
2022/09/21 11:15:59;;;;;;;0.37;0.20;;;;;;;;;;1805015;76;26328;-59
2022/09/21 11:18:44;;;;;;;0.47;0.15;;;;;;;;;;1831045;76;26340;-50
2022/09/21 11:21:13;;;;;;;0.65;0.28;;;;;;;;;;1854613;76;26265;-57
2022/09/21 11:23:48;;;;;;;0.57;0.57;;;;;;;;;;1851795;76;26298;-59
2022/09/21 11:26:17;;;;;;;0.23;0.20;;;;;;;;;;1852895;76;26716;-60
2022/09/21 11:28:46;;;;;;;0.37;0.30;;;;;;;;;;1857348;76;26380;-63
2022/09/21 11:31:17;;;;;;;2.05;0.28;;;;;;;;;;1850976;76;26307;-60
2022/09/21 11:33:49;;;;;;;2.58;0.42;;;;;;;;;;1839113;76;26309;-62
2022/09/21 11:36:30;;;;;;;1.75;0.30;;;;;;;;;;1837956;76;26682;-62
2022/09/21 11:39:16;;;;;;;0.13;0.13;;;;;;;;;;1837068;76;26339;-60
2022/09/21 11:41:51;;;;;;;1.67;0.25;;;;;;;;;;1840976;76;26335;-64
2022/09/21 11:44:37;;;;;;;0.30;0.30;;;;;;;;;;1818082;76;26698;-60
2022/09/21 11:47:08;;;;;;;3.60;0.33;;;;;;;;;;1840524;76;26296;-62
2022/09/21 11:49:49;;;;;;;1.65;0.30;;;;;;;;;;1836244;76;26274;-62
2022/09/21 11:52:21;;;;;;;0.23;0.23;;;;;;;;;;1867737;76;26367;-55
2022/09/21 11:54:59;;;;;;;2.27;0.20;;;;;;;;;;1845729;76;26295;-59
2022/09/21 11:57:28;;;;;;;0.53;0.40;;;;;;;;;;1850442;76;26255;-52
2022/09/21 12:00:10;;;;;;;0.23;0.23;;;;;;;;;;1858336;76;26328;-59
2022/09/21 12:02:51;;;;;;;0.30;0.30;;;;;;;;;;1849177;76;26255;-59
2022/09/21 12:08:28;;;;;;;0.33;0.28;;;;;;;;;;1842824;76;26303;-63
2022/09/21 12:11:14;;;;;;;0.15;0.15;;;;;;;;;;1802589;79;26368;-59
2022/09/21 12:13:58;;;;;;;0.85;0.20;;;;;;;;;;1841803;76;26320;-65
2022/09/21 12:16:34;;;;;;;0.42;0.20;;;;;;;;;;1872457;76;26279;-61
2022/09/21 12:19:05;;;;;;;0.10;0.10;;;;;;;;;;1848436;76;26623;-63
2022/09/21 12:21:34;;;;;;;0.80;0.20;;;;;;;;;;1832432;76;26283;-52
2022/09/21 12:24:06;;;;;;;0.05;0.05;;;;;;;;;;1870588;76;26267;-61
2022/09/21 12:26:35;;;;;;;0.10;0.10;;;;;;;;;;1845880;77;26814;-64
2022/09/21 12:29:04;;;;;;;0.10;0.10;;;;;;;;;;1852345;77;26728;-61
2022/09/21 12:31:39;;;;;;;0.72;0.30;;;;;;;;;;1850911;77;26298;-62
2022/09/21 12:34:07;;;;;;;0.10;0.10;;;;;;;;;;1847017;76;26695;-58
2022/09/21 12:36:39;;;;;;;0.17;0.10;;;;;;;;;;1833570;76;26796;-60
2022/09/21 12:39:26;;;;;;;1.00;0.20;;;;;;;;;;1837556;76;26270;-62
2022/09/21 12:42:01;;;;;;;0.10;0.10;;;;;;;;;;1848865;76;26695;-60
2022/09/21 12:44:30;;;;;;;0.13;0.13;;;;;;;;;;1840731;76;26260;-60
2022/09/21 12:47:08;;;;;;;0.75;0.23;;;;;;;;;;1823640;76;26286;-54
2022/09/21 12:49:31;;;;;;;1.27;0.15;;;;;;;;;;1823171;76;27230;-60
2022/09/21 12:52:00;;;;;;;2.40;0.20;;;;;;;;;;1829174;77;26311;-60
2022/09/21 12:54:36;;;;;;;2.40;0.30;;;;;;;;;;1801450;78;26255;-57
2022/09/21 12:57:08;;;;;;;0.20;0.20;;;;;;;;;;1861622;75;26292;-61
2022/09/21 12:59:52;;;;;;;0.20;0.20;;;;;;;;;;1807262;77;26333;-59
2022/09/21 13:02:23;;;;;;;0.17;0.17;;;;;;;;;;1825949;78;26294;-64
2022/09/21 13:04:55;;;;;;;0.60;0.20;;;;;;;;;;1857607;75;26827;-61
2022/09/21 13:07:24;;;;;;;0.20;0.20;;;;;;;;;;1808923;77;26312;-61
2022/09/21 13:09:52;;;;;;;0.10;0.10;;;;;;;;;;1817719;78;26377;-59
2022/09/21 13:12:23;;;;;;;0.15;0.15;;;;;;;;;;1818219;78;26258;-58
2022/09/21 13:14:52;;;;;;;0.10;0.10;;;;;;;;;;1819105;78;26771;-58
2022/09/21 13:17:24;;;;;;;0.20;0.20;;;;;;;;;;1821455;77;26765;-60
2022/09/21 13:19:53;;;;;;;0.47;0.20;;;;;;;;;;1817661;79;26267;-63
2022/09/21 13:22:24;;;;;;;0.20;0.20;;;;;;;;;;1824096;77;26263;-60
2022/09/21 13:25:00;;;;;;;0.23;0.23;;;;;;;;;;1826592;77;26751;-52
2022/09/21 13:27:41;;;;;;;0.20;0.20;;;;;;;;;;1805542;79;26296;-49
2022/09/21 13:30:10;;;;;;;0.20;0.20;;;;;;;;;;1806882;78;26859;-51
2022/09/21 13:32:39;;;;;;;0.10;0.10;;;;;;;;;;1805701;79;26793;-54
2022/09/21 13:35:25;;;;;;;0.10;0.10;;;;;;;;;;1814603;77;26700;-60
2022/09/21 13:38:10;;;;;;;0.20;0.20;;;;;;;;;;1818534;78;26305;-60
2022/09/21 13:40:39;;;;;;;0.10;0.10;;;;;;;;;;1807641;79;26278;-59
2022/09/21 13:43:11;;;;;;;0.10;0.10;;;;;;;;;;1812467;78;26380;-59
2022/09/21 13:45:40;;;;;;;0.10;0.10;;;;;;;;;;1809686;78;26706;-61
2022/09/21 13:48:15;;;;;;;0.20;0.20;;;;;;;;;;1816540;78;26266;-60
2022/09/21 13:50:43;;;;;;;0.20;0.20;;;;;;;;;;1815069;77;26302;-56
2022/09/21 13:53:21;;;;;;;0.17;0.17;;;;;;;;;;1813489;79;26329;-55
2022/09/21 13:55:50;;;;;;;0.75;0.37;;;;;;;;;;1804114;78;26266;-49
2022/09/21 13:58:22;;;;;;;0.20;0.20;;;;;;;;;;1814118;77;26279;-53
2022/09/21 14:01:00;;;;;;;0.10;0.10;;;;;;;;;;1808957;79;26780;-54
2022/09/21 14:03:33;;;;;;;0.20;0.20;;;;;;;;;;1802710;79;26797;-55
2022/09/21 14:06:15;;;;;;;0.20;0.20;;;;;;;;;;1811812;77;26872;-55
2022/09/21 14:08:47;;;;;;;0.10;0.10;;;;;;;;;;1803061;79;26361;-59
2022/09/21 14:11:25;;;;;;;0.20;0.20;;;;;;;;;;1795542;79;26314;-56
2022/09/21 14:14:12;;;;;;;0.20;0.20;;;;;;;;;;1807775;77;26268;-51
2022/09/21 14:16:43;;;;;;;0.20;0.20;;;;;;;;;;1891377;74;26223;-59
2022/09/21 14:19:21;;;;;;;0.20;0.20;;;;;;;;;;1887826;74;26610;-54
2022/09/21 14:22:10;;;;;;;0.20;0.20;;;;;;;;;;1871451;74;26308;-51
2022/09/21 14:24:37;;;;;;;0.10;0.10;;;;;;;;;;1895449;75;26804;-53
2022/09/21 14:27:15;;;;;;;0.47;0.20;;;;;;;;;;1887759;75;26776;-56
2022/09/21 14:29:46;;;;;;;0.10;0.10;;;;;;;;;;1891219;75;26345;-58
2022/09/21 14:32:16;;;;;;;0.42;0.20;;;;;;;;;;1895030;74;26890;-55
2022/09/21 14:34:45;;;;;;;0.45;0.10;;;;;;;;;;1894311;74;26301;-53
2022/09/21 14:37:29;;;;;;;0.20;0.20;;;;;;;;;;1875475;74;26249;-57
2022/09/21 14:39:57;;;;;;;0.20;0.20;;;;;;;;;;1880652;74;26743;-54
2022/09/21 14:42:27;;;;;;;0.57;0.10;;;;;;;;;;1871695;74;26261;-60
2022/09/21 14:45:02;;;;;;;0.23;0.23;;;;;;;;;;1874294;74;26795;-57
2022/09/21 14:47:50;;;;;;;2.67;0.20;;;;;;;;;;1871638;74;26246;-55
2022/09/21 14:50:38;;;;;;;0.28;0.28;;;;;;;;;;1877450;74;26384;-59
2022/09/21 14:53:06;;;;;;;0.55;0.35;;;;;;;;;;1871213;74;26454;-55
2022/09/21 14:55:35;;;;;;;0.20;0.10;;;;;;;;;;1877222;74;26329;-58
2022/09/21 14:58:04;;;;;;;1.20;0.37;;;;;;;;;;1886376;74;26247;-59
2022/09/21 15:00:38;;;;;;;0.37;0.23;;;;;;;;;;1878727;74;26227;-51
2022/09/21 15:03:25;;;;;;;0.28;0.28;;;;;;;;;;1877953;74;26281;-56
2022/09/21 15:05:59;;;;;;;1.07;0.20;;;;;;;;;;1891916;75;26226;-53
2022/09/21 15:11:32;;;;;;;0.30;0.30;;;;;;;;;;1871339;74;26279;-55
2022/09/21 15:14:10;;;;;;;0.30;0.30;;;;;;;;;;1880803;74;26263;-57
2022/09/21 15:16:46;;;;;;;0.30;0.30;;;;;;;;;;1890432;74;26215;-60
2022/09/21 15:19:18;;;;;;;0.20;0.20;;;;;;;;;;1889563;74;26343;-50